createdAt,value
2023-04-09T00:00:10.872Z,18.39
2023-04-09T00:03:37.353Z,18.39
2023-04-09T00:06:40.137Z,18.29
2023-04-09T00:09:43.107Z,18.30
2023-04-09T00:12:46.071Z,18.26
2023-04-09T00:15:48.635Z,18.26
2023-04-09T00:18:51.052Z,18.29
2023-04-09T00:21:53.939Z,18.28
2023-04-09T00:24:56.417Z,18.22
2023-04-09T00:27:59.633Z,18.25
2023-04-09T00:31:02.429Z,18.28
2023-04-09T00:34:05.924Z,18.28
2023-04-09T00:37:08.276Z,18.29
2023-04-09T00:40:11.470Z,18.26
2023-04-09T00:43:13.578Z,18.26
2023-04-09T00:46:18.153Z,18.24
2023-04-09T00:49:20.634Z,18.28
2023-04-09T00:52:24.402Z,18.22
2023-04-09T00:55:27.378Z,18.21
2023-04-09T00:58:29.922Z,18.18
2023-04-09T01:01:32.126Z,18.21
2023-04-09T01:04:35.850Z,18.19
2023-04-09T01:07:59.712Z,18.19
2023-04-09T01:11:16.174Z,18.22
2023-04-09T01:14:23.186Z,18.22
2023-04-09T01:17:41.929Z,18.21
2023-04-09T01:21:10.222Z,18.21
2023-04-09T01:24:47.181Z,18.19
2023-04-09T01:28:06.997Z,18.15
2023-04-09T01:31:14.245Z,18.19
2023-04-09T01:34:18.641Z,18.16
2023-04-09T01:37:23.903Z,18.15
2023-04-09T01:40:26.385Z,18.18
2023-04-09T01:43:30.653Z,18.15
2023-04-09T01:46:35.338Z,18.15
2023-04-09T01:49:41.334Z,18.16
2023-04-09T01:52:43.720Z,18.10
2023-04-09T01:55:46.624Z,18.12
2023-04-09T01:58:48.933Z,18.12
2023-04-09T02:02:00.266Z,18.09
2023-04-09T02:05:07.270Z,18.05
2023-04-09T02:08:12.939Z,18.06
2023-04-09T02:11:16.776Z,18.01
2023-04-09T02:14:20.957Z,18.04
2023-04-09T02:17:24.380Z,18.09
2023-04-09T02:20:27.025Z,18.06
2023-04-09T02:23:29.564Z,18.01
2023-04-09T02:26:32.148Z,18.04
2023-04-09T02:29:34.657Z,18.02
2023-04-09T02:32:37.324Z,18.02
2023-04-09T02:35:39.479Z,17.99
2023-04-09T02:38:43.053Z,17.99
2023-04-09T02:41:45.356Z,17.98
2023-04-09T02:44:48.236Z,17.95
2023-04-09T02:47:51.047Z,17.92
2023-04-09T02:50:53.705Z,17.94
2023-04-09T02:53:55.774Z,17.95
2023-04-09T02:56:58.310Z,17.94
2023-04-09T03:00:00.651Z,17.92
2023-04-09T03:03:03.431Z,17.95
2023-04-09T03:06:05.697Z,17.96
2023-04-09T03:09:08.489Z,17.99
2023-04-09T03:12:10.732Z,17.95
2023-04-09T03:15:13.214Z,17.96
2023-04-09T03:18:18.347Z,17.89
2023-04-09T03:21:21.351Z,17.95
2023-04-09T03:24:25.499Z,17.96
2023-04-09T03:27:29.241Z,17.95
2023-04-09T03:30:33.212Z,17.89
2023-04-09T03:33:38.108Z,17.92
2023-04-09T03:36:40.564Z,17.88
2023-04-09T03:39:52.309Z,17.89
2023-04-09T03:42:55.815Z,17.86
2023-04-09T03:45:58.731Z,17.89
2023-04-09T03:49:02.528Z,17.86
2023-04-09T03:52:18.242Z,17.85
2023-04-09T03:55:27.495Z,17.92
2023-04-09T03:58:31.696Z,17.92
2023-04-09T04:01:34.983Z,17.91
2023-04-09T04:04:38.860Z,17.86
2023-04-09T04:07:45.404Z,17.86
2023-04-09T04:10:52.875Z,17.86
2023-04-09T04:13:56.557Z,17.88
2023-04-09T04:17:00.285Z,17.85
2023-04-09T04:20:06.036Z,17.85
2023-04-09T04:23:14.706Z,17.88
2023-04-09T04:26:25.802Z,17.88
2023-04-09T04:29:29.054Z,17.85
2023-04-09T04:32:35.076Z,17.86
2023-04-09T04:35:41.957Z,17.84
2023-04-09T04:38:51.905Z,17.81
2023-04-09T04:42:16.748Z,17.84
2023-04-09T04:45:19.582Z,17.82
2023-04-09T04:48:28.202Z,17.82
2023-04-09T04:51:33.768Z,17.79
2023-04-09T04:54:45.572Z,17.78
2023-04-09T04:57:53.344Z,17.75
2023-04-09T05:01:00.763Z,17.71
2023-04-09T05:04:05.140Z,17.71
2023-04-09T05:07:09.752Z,17.74
2023-04-09T05:10:17.079Z,17.79
2023-04-09T05:13:21.454Z,17.78
2023-04-09T05:16:23.672Z,17.74
2023-04-09T05:19:35.128Z,17.73
2023-04-09T05:22:38.475Z,17.77
2023-04-09T05:25:42.087Z,17.77
2023-04-09T05:28:52.829Z,17.73
2023-04-09T05:31:58.499Z,17.78
2023-04-09T05:35:06.452Z,17.81
2023-04-09T05:38:14.899Z,17.77
2023-04-09T05:41:20.026Z,17.81
2023-04-09T05:44:38.881Z,17.82
2023-04-09T05:47:49.228Z,17.81
2023-04-09T05:51:00.365Z,17.75
2023-04-09T05:54:04.325Z,17.84
2023-04-09T05:57:11.497Z,17.78
2023-04-09T06:00:20.344Z,17.79
2023-04-09T06:03:24.478Z,17.78
2023-04-09T06:06:27.602Z,17.78
2023-04-09T06:09:30.158Z,17.85
2023-04-09T06:12:34.930Z,17.84
2023-04-09T06:15:40.809Z,17.82
2023-04-09T06:18:43.094Z,17.78
2023-04-09T06:21:45.899Z,17.82
2023-04-09T06:24:48.378Z,17.82
2023-04-09T06:27:51.702Z,17.79
2023-04-09T06:30:55.397Z,17.78
2023-04-09T06:33:57.807Z,17.85
2023-04-09T06:36:59.971Z,17.84
2023-04-09T06:40:03.560Z,17.85
2023-04-09T06:43:06.285Z,17.85
2023-04-09T06:46:23.854Z,17.88
2023-04-09T06:49:26.600Z,17.84
2023-04-09T06:52:29.806Z,17.84
2023-04-09T06:55:31.933Z,17.81
2023-04-09T06:58:34.699Z,17.85
2023-04-09T07:01:38.244Z,17.84
2023-04-09T07:04:41.972Z,17.82
2023-04-09T07:07:44.008Z,17.85
2023-04-09T07:10:47.951Z,17.81
2023-04-09T07:13:51.489Z,17.84
2023-04-09T07:16:54.103Z,17.96
2023-04-09T07:19:56.871Z,17.99
2023-04-09T07:22:59.633Z,17.96
2023-04-09T07:26:05.594Z,17.98
2023-04-09T07:29:08.140Z,17.96
2023-04-09T07:32:10.314Z,17.91
2023-04-09T07:35:12.929Z,17.95
2023-04-09T07:38:15.145Z,17.98
2023-04-09T07:41:19.306Z,17.98
2023-04-09T07:44:21.372Z,17.94
2023-04-09T07:47:25.673Z,17.89
2023-04-09T07:50:27.878Z,17.85
2023-04-09T07:53:30.387Z,17.86
2023-04-09T07:56:32.549Z,17.95
2023-04-09T07:59:35.352Z,17.91
2023-04-09T08:02:37.638Z,17.92
2023-04-09T08:05:40.687Z,17.98
2023-04-09T08:08:43.507Z,17.95
2023-04-09T08:11:46.631Z,17.88
2023-04-09T08:14:49.235Z,17.89
2023-04-09T08:17:51.808Z,17.94
2023-04-09T08:20:53.894Z,17.92
2023-04-09T08:24:01.508Z,17.88
2023-04-09T08:27:03.754Z,17.91
2023-04-09T08:30:06.925Z,17.79
2023-04-09T08:33:10.181Z,17.84
2023-04-09T08:36:13.555Z,17.92
2023-04-09T08:39:19.293Z,17.94
2023-04-09T08:42:22.772Z,17.98
2023-04-09T08:45:24.961Z,17.96
2023-04-09T08:48:28.618Z,17.95
2023-04-09T08:51:31.589Z,17.98
2023-04-09T08:54:34.830Z,18.02
2023-04-09T08:57:40.453Z,18.06
2023-04-09T09:00:42.918Z,18.08
2023-04-09T09:04:10.052Z,18.05
2023-04-09T09:07:53.082Z,18.01
2023-04-09T09:10:55.488Z,18.12
2023-04-09T09:14:06.738Z,18.10
2023-04-09T09:17:09.459Z,18.16
2023-04-09T09:20:21.991Z,18.09
2023-04-09T09:23:37.065Z,18.10
2023-04-09T09:26:39.777Z,18.09
2023-04-09T09:29:43.072Z,18.09
2023-04-09T09:32:45.660Z,18.08
2023-04-09T09:35:58.230Z,18.09
2023-04-09T09:39:11.006Z,18.09
2023-04-09T09:42:13.258Z,18.10
2023-04-09T09:45:20.181Z,18.09
2023-04-09T09:48:22.203Z,18.09
2023-04-09T09:51:28.148Z,18.15
2023-04-09T09:54:38.734Z,18.22
2023-04-09T09:57:48.489Z,18.28
2023-04-09T10:00:52.977Z,18.26
2023-04-09T10:03:59.977Z,18.25
2023-04-09T10:07:06.362Z,18.28
2023-04-09T10:10:09.726Z,18.32
2023-04-09T10:13:23.050Z,18.33
2023-04-09T10:16:28.623Z,18.36
2023-04-09T10:19:39.059Z,18.40
2023-04-09T10:22:46.168Z,18.45
2023-04-09T10:25:48.444Z,18.36
2023-04-09T10:29:15.756Z,18.32
2023-04-09T10:32:26.862Z,18.21
2023-04-09T10:35:29.606Z,18.33
2023-04-09T10:38:36.332Z,18.43
2023-04-09T10:41:39.875Z,18.47
2023-04-09T10:44:42.985Z,18.55
2023-04-09T10:47:52.119Z,17.75
2023-04-09T10:50:55.485Z,17.81
2023-04-09T10:53:58.400Z,18.25
2023-04-09T10:57:14.635Z,17.43
2023-04-09T11:00:19.221Z,17.84
2023-04-09T11:03:32.860Z,18.05
2023-04-09T11:06:41.482Z,18.12
2023-04-09T11:09:43.755Z,17.79
2023-04-09T11:12:48.394Z,18.15
2023-04-09T11:15:51.355Z,18.29
2023-04-09T11:18:56.557Z,17.51
2023-04-09T11:21:59.400Z,17.85
2023-04-09T11:25:02.305Z,18.26
2023-04-09T11:28:06.297Z,18.32
2023-04-09T11:31:09.406Z,18.50
2023-04-09T11:34:15.328Z,18.61
2023-04-09T11:37:24.094Z,18.69
2023-04-09T11:40:29.515Z,18.66
2023-04-09T11:43:32.959Z,18.28
2023-04-09T11:46:36.395Z,18.57
2023-04-09T11:49:43.634Z,18.53
2023-04-09T11:52:46.953Z,18.60
2023-04-09T11:55:51.837Z,18.57
2023-04-09T11:58:55.196Z,18.63
2023-04-09T12:01:58.949Z,18.52
2023-04-09T12:05:04.825Z,18.71
2023-04-09T12:08:10.788Z,18.46
2023-04-09T12:11:15.379Z,18.63
2023-04-09T12:14:18.843Z,18.63
2023-04-09T12:17:21.865Z,18.36
2023-04-09T12:20:35.776Z,18.67
2023-04-09T12:23:38.173Z,18.01
2023-04-09T12:26:40.685Z,17.65
2023-04-09T12:29:43.408Z,17.37
2023-04-09T12:32:46.614Z,17.57
2023-04-09T12:35:49.122Z,17.26
2023-04-09T12:38:52.315Z,17.48
2023-04-09T12:41:54.922Z,17.55
2023-04-09T12:44:57.528Z,17.30
2023-04-09T12:47:59.624Z,17.17
2023-04-09T12:51:04.392Z,17.09
2023-04-09T12:54:06.794Z,17.20
2023-04-09T12:57:09.686Z,17.48
2023-04-09T13:00:12.392Z,17.70
2023-04-09T13:03:17.434Z,17.98
2023-04-09T13:06:19.754Z,17.85
2023-04-09T13:09:22.647Z,17.14
2023-04-09T13:12:25.284Z,17.44
2023-04-09T13:15:27.992Z,17.99
2023-04-09T13:18:30.234Z,17.74
2023-04-09T13:21:32.659Z,18.35
2023-04-09T13:24:36.404Z,18.30
2023-04-09T13:27:39.236Z,18.69
2023-04-09T13:30:41.520Z,18.79
2023-04-09T13:33:44.147Z,18.93
2023-04-09T13:36:46.261Z,18.94
2023-04-09T13:39:51.532Z,19.01
2023-04-09T13:42:53.846Z,19.07
2023-04-09T13:45:57.584Z,19.03
2023-04-09T13:48:59.834Z,19.04
2023-04-09T13:52:05.126Z,19.03
2023-04-09T13:55:08.361Z,19.04
2023-04-09T13:58:10.931Z,19.06
2023-04-09T14:01:13.922Z,19.11
2023-04-09T14:04:17.859Z,19.14
2023-04-09T14:07:20.372Z,19.11
2023-04-09T14:10:23.423Z,19.14
2023-04-09T14:13:25.878Z,19.15
2023-04-09T14:16:30.538Z,19.18
2023-04-09T14:19:32.890Z,19.18
2023-04-09T14:22:35.374Z,19.21
2023-04-09T14:25:38.444Z,19.14
2023-04-09T14:28:41.369Z,19.20
2023-04-09T14:31:44.267Z,19.15
2023-04-09T14:34:47.246Z,19.21
2023-04-09T14:37:49.558Z,19.22
2023-04-09T14:40:52.935Z,19.21
2023-04-09T14:43:54.946Z,19.24
2023-04-09T14:46:58.012Z,19.21
2023-04-09T14:50:00.213Z,19.24
2023-04-09T14:53:04.728Z,19.25
2023-04-09T14:56:07.252Z,19.27
2023-04-09T14:59:10.704Z,19.25
2023-04-09T15:02:13.060Z,19.27
2023-04-09T15:05:16.158Z,19.24
2023-04-09T15:08:18.313Z,19.22
2023-04-09T15:11:24.015Z,19.28
2023-04-09T15:14:31.112Z,19.27
2023-04-09T15:17:33.974Z,19.25
2023-04-09T15:20:42.527Z,19.28
2023-04-09T15:23:46.617Z,19.27
2023-04-09T15:26:49.872Z,19.27
2023-04-09T15:29:52.500Z,19.28
2023-04-09T15:32:55.575Z,19.24
2023-04-09T15:35:59.897Z,19.27
2023-04-09T15:39:05.531Z,19.30
2023-04-09T15:42:10.311Z,19.28
2023-04-09T15:45:16.540Z,19.32
2023-04-09T15:48:19.801Z,19.31
2023-04-09T15:51:23.161Z,19.25
2023-04-09T15:54:25.827Z,19.28
2023-04-09T15:57:29.437Z,19.31
2023-04-09T16:00:32.287Z,19.31
2023-04-09T16:03:39.743Z,19.32
2023-04-09T16:06:42.385Z,19.30
2023-04-09T16:09:52.287Z,19.25
2023-04-09T16:12:54.710Z,19.27
2023-04-09T16:15:56.884Z,19.31
2023-04-09T16:19:01.466Z,19.30
2023-04-09T16:22:04.078Z,19.30
2023-04-09T16:25:07.947Z,19.30
2023-04-09T16:28:09.996Z,19.30
2023-04-09T16:31:13.242Z,19.30
2023-04-09T16:34:15.761Z,19.30
2023-04-09T16:37:18.256Z,19.30
2023-04-09T16:40:25.187Z,19.27
2023-04-09T16:43:28.039Z,19.28
2023-04-09T16:46:30.408Z,19.25
2023-04-09T16:49:33.029Z,19.20
2023-04-09T16:52:36.883Z,19.24
2023-04-09T16:55:39.429Z,19.22
2023-04-09T16:58:41.509Z,19.22
2023-04-09T17:01:44.549Z,19.06
2023-04-09T17:04:46.568Z,19.03
2023-04-09T17:07:49.862Z,18.79
2023-04-09T17:10:53.005Z,18.60
2023-04-09T17:13:55.472Z,18.43
2023-04-09T17:16:57.818Z,18.47
2023-04-09T17:20:01.850Z,18.24
2023-04-09T17:23:04.114Z,17.85
2023-04-09T17:26:07.135Z,17.37
2023-04-09T17:29:09.892Z,17.77
2023-04-09T17:32:12.564Z,18.40
2023-04-09T17:35:14.891Z,18.60
2023-04-09T17:38:21.624Z,18.73
2023-04-09T17:41:24.806Z,18.81
2023-04-09T17:44:27.514Z,18.89
2023-04-09T17:47:29.906Z,18.84
2023-04-09T17:50:32.630Z,18.79
2023-04-09T17:53:34.730Z,18.77
2023-04-09T17:56:39.210Z,18.70
2023-04-09T17:59:41.359Z,18.74
2023-04-09T18:02:45.125Z,18.80
2023-04-09T18:05:47.580Z,18.79
2023-04-09T18:08:51.128Z,18.79
2023-04-09T18:11:56.476Z,18.73
2023-04-09T18:14:58.900Z,18.59
2023-04-09T18:18:01.242Z,18.43
2023-04-09T18:21:04.807Z,18.53
2023-04-09T18:24:07.859Z,18.59
2023-04-09T18:27:10.860Z,18.55
2023-04-09T18:30:13.108Z,18.29
2023-04-09T18:33:15.883Z,18.36
2023-04-09T18:36:19.650Z,18.49
2023-04-09T18:39:24.210Z,18.45
2023-04-09T18:42:26.682Z,18.50
2023-04-09T18:45:29.654Z,18.50
2023-04-09T18:48:32.078Z,18.53
2023-04-09T18:51:34.427Z,18.53
2023-04-09T18:54:39.197Z,18.59
2023-04-09T18:57:44.288Z,18.64
2023-04-09T19:00:47.293Z,18.66
2023-04-09T19:03:52.121Z,18.66
2023-04-09T19:06:54.904Z,18.66
2023-04-09T19:09:57.678Z,18.64
2023-04-09T19:12:59.814Z,18.60
2023-04-09T19:16:02.817Z,18.61
2023-04-09T19:19:05.231Z,18.63
2023-04-09T19:22:08.009Z,18.64
2023-04-09T19:25:10.715Z,18.63
2023-04-09T19:28:13.561Z,18.59
2023-04-09T19:31:17.316Z,18.61
2023-04-09T19:34:20.336Z,18.60
2023-04-09T19:37:25.732Z,18.63
2023-04-09T19:40:28.113Z,18.60
2023-04-09T19:43:30.501Z,18.61
2023-04-09T19:46:33.952Z,18.59
2023-04-09T19:49:36.239Z,18.59
2023-04-09T19:52:40.919Z,18.59
2023-04-09T19:55:43.070Z,18.59
2023-04-09T19:58:45.849Z,18.61
2023-04-09T20:01:48.825Z,18.55
2023-04-09T20:04:52.574Z,18.50
2023-04-09T20:07:55.110Z,18.53
2023-04-09T20:10:57.572Z,18.66
2023-04-09T20:14:00.181Z,18.74
2023-04-09T20:17:03.372Z,18.80
2023-04-09T20:20:05.880Z,18.86
2023-04-09T20:23:08.561Z,18.83
2023-04-09T20:26:11.299Z,18.84
2023-04-09T20:29:14.881Z,18.86
2023-04-09T20:32:17.281Z,18.87
2023-04-09T20:35:20.046Z,18.90
2023-04-09T20:38:23.034Z,18.90
2023-04-09T20:41:26.049Z,18.94
2023-04-09T20:44:28.879Z,18.91
2023-04-09T20:47:32.072Z,18.96
2023-04-09T20:50:34.140Z,18.99
2023-04-09T20:53:37.928Z,19.01
2023-04-09T20:56:39.911Z,19.07
2023-04-09T20:59:42.481Z,19.04
2023-04-09T21:02:44.819Z,18.99
2023-04-09T21:05:47.363Z,19.03
2023-04-09T21:08:49.464Z,19.01
2023-04-09T21:11:51.926Z,19.08
2023-04-09T21:14:54.205Z,19.08
2023-04-09T21:17:56.735Z,19.08
2023-04-09T21:20:58.901Z,19.17
2023-04-09T21:24:01.669Z,19.18
2023-04-09T21:27:07.546Z,19.18
2023-04-09T21:30:10.695Z,19.18
2023-04-09T21:33:13.016Z,19.18
2023-04-09T21:36:16.946Z,19.24
2023-04-09T21:39:19.154Z,19.27
2023-04-09T21:42:23.199Z,19.25
2023-04-09T21:45:25.489Z,19.30
2023-04-09T21:48:30.868Z,19.31
2023-04-09T21:51:33.252Z,19.32
2023-04-09T21:54:36.309Z,19.35
2023-04-09T21:57:38.304Z,19.35
2023-04-09T22:00:41.291Z,19.31
2023-04-09T22:03:44.691Z,19.34
2023-04-09T22:06:47.205Z,19.38
2023-04-09T22:09:49.327Z,19.39
2023-04-09T22:12:51.773Z,19.47
2023-04-09T22:15:54.331Z,19.41
2023-04-09T22:18:57.678Z,19.41
2023-04-09T22:22:00.384Z,19.45
2023-04-09T22:25:03.251Z,19.48
2023-04-09T22:28:06.244Z,19.48
2023-04-09T22:31:09.243Z,19.50
2023-04-09T22:34:20.732Z,19.48
2023-04-09T22:37:24.279Z,19.52
2023-04-09T22:40:26.761Z,19.51
2023-04-09T22:43:29.291Z,19.50
2023-04-09T22:46:32.018Z,19.44
2023-04-09T22:49:35.135Z,19.51
2023-04-09T22:52:37.326Z,19.48
2023-04-09T22:55:39.926Z,19.48
2023-04-09T22:58:42.378Z,19.51
2023-04-09T23:01:45.535Z,19.47
2023-04-09T23:04:47.943Z,19.34
2023-04-09T23:07:51.394Z,19.28
2023-04-09T23:10:54.785Z,19.28
2023-04-09T23:13:59.149Z,19.30
2023-04-09T23:17:01.535Z,19.27
2023-04-09T23:20:04.292Z,19.20
2023-04-09T23:23:06.698Z,19.15
2023-04-09T23:26:09.189Z,19.08
2023-04-09T23:29:11.514Z,19.04
2023-04-09T23:32:14.428Z,19.03
2023-04-09T23:35:17.466Z,19.03
2023-04-09T23:38:20.000Z,19.01
2023-04-09T23:41:22.120Z,19.00
2023-04-09T23:44:24.738Z,18.97
2023-04-09T23:47:28.267Z,18.96
2023-04-09T23:50:30.807Z,18.93
2023-04-09T23:53:32.946Z,18.93
2023-04-09T23:56:35.975Z,18.91
2023-04-09T23:59:37.970Z,18.89
